sensor_id;sensor_type;location;lat;lon;timestamp;P1;durP1;ratioP1;P2;durP2;ratioP2
25129;SDS011;13308;50.860;13.664;2023-07-13T05:19:24;5.63;;;5.13;;
25129;SDS011;13308;50.860;13.664;2023-07-13T05:21:49;6.07;;;5.57;;
25129;SDS011;13308;50.860;13.664;2023-07-13T05:24:15;5.90;;;5.32;;
25129;SDS011;13308;50.860;13.664;2023-07-13T05:26:40;5.55;;;5.05;;
25129;SDS011;13308;50.860;13.664;2023-07-13T05:29:05;6.15;;;5.10;;
25129;SDS011;13308;50.860;13.664;2023-07-13T05:31:31;5.47;;;5.07;;
25129;SDS011;13308;50.860;13.664;2023-07-13T05:33:56;5.55;;;5.07;;
25129;SDS011;13308;50.860;13.664;2023-07-13T05:36:21;6.05;;;4.50;;
25129;SDS011;13308;50.860;13.664;2023-07-13T05:38:46;4.85;;;4.45;;
25129;SDS011;13308;50.860;13.664;2023-07-13T05:41:12;5.95;;;4.57;;
25129;SDS011;13308;50.860;13.664;2023-07-13T05:43:37;5.10;;;4.70;;
25129;SDS011;13308;50.860;13.664;2023-07-13T05:46:02;4.75;;;4.35;;
25129;SDS011;13308;50.860;13.664;2023-07-13T05:48:28;6.65;;;4.90;;
25129;SDS011;13308;50.860;13.664;2023-07-13T05:50:53;4.90;;;4.50;;
25129;SDS011;13308;50.860;13.664;2023-07-13T05:53:18;4.80;;;4.40;;
25129;SDS011;13308;50.860;13.664;2023-07-13T05:55:44;5.30;;;4.80;;
25129;SDS011;13308;50.860;13.664;2023-07-13T05:58:18;5.32;;;4.93;;
25129;SDS011;13308;50.860;13.664;2023-07-13T06:00:44;5.32;;;4.93;;
25129;SDS011;13308;50.860;13.664;2023-07-13T06:03:09;5.32;;;4.82;;
25129;SDS011;13308;50.860;13.664;2023-07-13T06:05:37;5.90;;;5.35;;
25129;SDS011;13308;50.860;13.664;2023-07-13T06:08:04;5.38;;;4.97;;
25129;SDS011;13308;50.860;13.664;2023-07-13T06:10:32;5.50;;;5.00;;
25129;SDS011;13308;50.860;13.664;2023-07-13T06:12:58;5.70;;;5.20;;
25129;SDS011;13308;50.860;13.664;2023-07-13T06:15:23;5.28;;;4.72;;
25129;SDS011;13308;50.860;13.664;2023-07-13T06:17:49;5.18;;;4.68;;
25129;SDS011;13308;50.860;13.664;2023-07-13T06:20:14;6.47;;;5.18;;
25129;SDS011;13308;50.860;13.664;2023-07-13T06:22:39;5.22;;;4.55;;
25129;SDS011;13308;50.860;13.664;2023-07-13T06:25:05;5.25;;;4.43;;
25129;SDS011;13308;50.860;13.664;2023-07-13T06:27:30;4.70;;;4.38;;
25129;SDS011;13308;50.860;13.664;2023-07-13T06:29:56;4.28;;;3.83;;
25129;SDS011;13308;50.860;13.664;2023-07-13T06:32:21;5.57;;;4.18;;
25129;SDS011;13308;50.860;13.664;2023-07-13T06:34:46;4.32;;;3.92;;
25129;SDS011;13308;50.860;13.664;2023-07-13T06:37:11;5.90;;;4.03;;
25129;SDS011;13308;50.860;13.664;2023-07-13T06:39:37;4.85;;;4.28;;
25129;SDS011;13308;50.860;13.664;2023-07-13T06:42:02;3.53;;;3.22;;
25129;SDS011;13308;50.860;13.664;2023-07-13T06:44:28;3.00;;;2.67;;
25129;SDS011;13308;50.860;13.664;2023-07-13T06:46:53;3.38;;;3.08;;
25129;SDS011;13308;50.860;13.664;2023-07-13T06:49:19;3.00;;;2.45;;
25129;SDS011;13308;50.860;13.664;2023-07-13T06:51:44;3.50;;;3.20;;
25129;SDS011;13308;50.860;13.664;2023-07-13T06:54:09;3.08;;;2.60;;
25129;SDS011;13308;50.860;13.664;2023-07-13T06:56:35;3.00;;;2.70;;
25129;SDS011;13308;50.860;13.664;2023-07-13T06:59:00;2.70;;;2.50;;
25129;SDS011;13308;50.860;13.664;2023-07-13T07:01:25;2.88;;;2.67;;
25129;SDS011;13308;50.860;13.664;2023-07-13T07:03:51;3.95;;;2.58;;
25129;SDS011;13308;50.860;13.664;2023-07-13T07:06:17;3.13;;;2.50;;
25129;SDS011;13308;50.860;13.664;2023-07-13T07:08:45;3.17;;;2.50;;
25129;SDS011;13308;50.860;13.664;2023-07-13T07:11:12;3.58;;;2.80;;
25129;SDS011;13308;50.860;13.664;2023-07-13T07:13:38;3.75;;;2.28;;
25129;SDS011;13308;50.860;13.664;2023-07-13T07:16:04;2.72;;;2.53;;
25129;SDS011;13308;50.860;13.664;2023-07-13T07:18:29;2.63;;;2.42;;
25129;SDS011;13308;50.860;13.664;2023-07-13T07:20:54;2.92;;;2.30;;
25129;SDS011;13308;50.860;13.664;2023-07-13T07:23:19;2.60;;;2.40;;
25129;SDS011;13308;50.860;13.664;2023-07-13T07:25:45;2.35;;;2.20;;
25129;SDS011;13308;50.860;13.664;2023-07-13T07:28:11;2.50;;;1.75;;
25129;SDS011;13308;50.860;13.664;2023-07-13T07:30:41;2.40;;;2.20;;
25129;SDS011;13308;50.860;13.664;2023-07-13T07:33:07;2.67;;;2.47;;
25129;SDS011;13308;50.860;13.664;2023-07-13T07:35:33;4.13;;;2.05;;
25129;SDS011;13308;50.860;13.664;2023-07-13T07:37:58;2.95;;;1.83;;
25129;SDS011;13308;50.860;13.664;2023-07-13T07:40:23;2.10;;;1.90;;
25129;SDS011;13308;50.860;13.664;2023-07-13T07:42:49;3.42;;;1.90;;
25129;SDS011;13308;50.860;13.664;2023-07-13T07:45:14;3.15;;;2.00;;
25129;SDS011;13308;50.860;13.664;2023-07-13T07:47:39;2.20;;;1.85;;
25129;SDS011;13308;50.860;13.664;2023-07-13T07:50:05;2.80;;;1.98;;
25129;SDS011;13308;50.860;13.664;2023-07-13T07:52:31;2.63;;;2.35;;
25129;SDS011;13308;50.860;13.664;2023-07-13T07:54:56;2.50;;;2.30;;
25129;SDS011;13308;50.860;13.664;2023-07-13T07:57:21;3.20;;;2.75;;
25129;SDS011;13308;50.860;13.664;2023-07-13T07:59:47;3.05;;;2.40;;
25129;SDS011;13308;50.860;13.664;2023-07-13T08:02:13;2.60;;;2.40;;
25129;SDS011;13308;50.860;13.664;2023-07-13T08:04:38;3.08;;;2.83;;
25129;SDS011;13308;50.860;13.664;2023-07-13T08:07:04;3.47;;;2.90;;
25129;SDS011;13308;50.860;13.664;2023-07-13T08:09:30;3.30;;;3.10;;
25129;SDS011;13308;50.860;13.664;2023-07-13T08:11:55;4.00;;;2.95;;
25129;SDS011;13308;50.860;13.664;2023-07-13T08:14:20;3.50;;;3.20;;
25129;SDS011;13308;50.860;13.664;2023-07-13T08:16:46;2.92;;;2.72;;
25129;SDS011;13308;50.860;13.664;2023-07-13T08:19:11;2.67;;;2.47;;
25129;SDS011;13308;50.860;13.664;2023-07-13T08:21:37;6.07;;;2.70;;
25129;SDS011;13308;50.860;13.664;2023-07-13T08:24:02;4.32;;;2.72;;
25129;SDS011;13308;50.860;13.664;2023-07-13T08:26:28;2.78;;;2.58;;
25129;SDS011;13308;50.860;13.664;2023-07-13T08:28:53;2.42;;;2.22;;
25129;SDS011;13308;50.860;13.664;2023-07-13T08:31:18;2.80;;;2.60;;
25129;SDS011;13308;50.860;13.664;2023-07-13T08:33:44;3.67;;;3.20;;
25129;SDS011;13308;50.860;13.664;2023-07-13T08:36:09;2.90;;;2.67;;
25129;SDS011;13308;50.860;13.664;2023-07-13T08:38:35;3.95;;;3.03;;
25129;SDS011;13308;50.860;13.664;2023-07-13T08:41:02;2.85;;;2.65;;
25129;SDS011;13308;50.860;13.664;2023-07-13T08:43:36;3.00;;;2.80;;
25129;SDS011;13308;50.860;13.664;2023-07-13T08:46:09;3.08;;;2.83;;
25129;SDS011;13308;50.860;13.664;2023-07-13T08:48:44;4.00;;;2.50;;
25129;SDS011;13308;50.860;13.664;2023-07-13T08:53:49;2.28;;;2.00;;
25129;SDS011;13308;50.860;13.664;2023-07-13T08:56:22;3.30;;;2.30;;
25129;SDS011;13308;50.860;13.664;2023-07-13T08:58:51;3.67;;;2.20;;
25129;SDS011;13308;50.860;13.664;2023-07-13T09:04:21;2.85;;;2.55;;
25129;SDS011;13308;50.860;13.664;2023-07-13T09:06:58;2.20;;;2.00;;
25129;SDS011;13308;50.860;13.664;2023-07-13T09:15:34;2.70;;;2.50;;
25129;SDS011;13308;50.860;13.664;2023-07-13T09:18:18;2.60;;;2.40;;
25129;SDS011;13308;50.860;13.664;2023-07-13T09:21:36;2.25;;;2.05;;
25129;SDS011;13308;50.860;13.664;2023-07-13T09:23:45;3.38;;;1.45;;
25129;SDS011;13308;50.860;13.664;2023-07-13T09:26:14;1.73;;;1.58;;
25129;SDS011;13308;50.860;13.664;2023-07-13T09:28:44;2.05;;;1.67;;
25129;SDS011;13308;50.860;13.664;2023-07-13T09:31:16;2.22;;;2.03;;
25129;SDS011;13308;50.860;13.664;2023-07-13T09:33:46;1.60;;;1.50;;
25129;SDS011;13308;50.860;13.664;2023-07-13T09:36:22;1.60;;;1.50;;
25129;SDS011;13308;50.860;13.664;2023-07-13T09:38:55;4.05;;;1.80;;
25129;SDS011;13308;50.860;13.664;2023-07-13T09:41:42;2.00;;;1.80;;
25129;SDS011;13308;50.860;13.664;2023-07-13T09:44:11;2.83;;;1.83;;
25129;SDS011;13308;50.860;13.664;2023-07-13T09:46:43;2.83;;;1.67;;
25129;SDS011;13308;50.860;13.664;2023-07-13T09:49:11;2.55;;;1.75;;
25129;SDS011;13308;50.860;13.664;2023-07-13T09:51:40;2.25;;;2.03;;
25129;SDS011;13308;50.860;13.664;2023-07-13T09:54:16;2.95;;;2.05;;
25129;SDS011;13308;50.860;13.664;2023-07-13T09:56:43;7.40;;;4.43;;
25129;SDS011;13308;50.860;13.664;2023-07-13T09:59:20;6.47;;;3.08;;
25129;SDS011;13308;50.860;13.664;2023-07-13T10:01:47;2.20;;;1.90;;
25129;SDS011;13308;50.860;13.664;2023-07-13T10:04:14;2.67;;;2.13;;
25129;SDS011;13308;50.860;13.664;2023-07-13T10:06:43;3.47;;;1.95;;
25129;SDS011;13308;50.860;13.664;2023-07-13T10:09:10;3.13;;;2.15;;
25129;SDS011;13308;50.860;13.664;2023-07-13T10:11:39;2.80;;;2.60;;
25129;SDS011;13308;50.860;13.664;2023-07-13T10:14:15;2.10;;;1.95;;
25129;SDS011;13308;50.860;13.664;2023-07-13T10:16:43;2.58;;;1.88;;
25129;SDS011;13308;50.860;13.664;2023-07-13T10:19:15;2.25;;;2.00;;
25129;SDS011;13308;50.860;13.664;2023-07-13T10:21:54;3.72;;;2.00;;
25129;SDS011;13308;50.860;13.664;2023-07-13T10:24:30;3.55;;;2.03;;
25129;SDS011;13308;50.860;13.664;2023-07-13T10:27:01;2.67;;;2.47;;
25129;SDS011;13308;50.860;13.664;2023-07-13T10:29:34;3.20;;;2.20;;
25129;SDS011;13308;50.860;13.664;2023-07-13T10:32:07;2.70;;;1.83;;
25129;SDS011;13308;50.860;13.664;2023-07-13T10:34:35;2.90;;;2.28;;
25129;SDS011;13308;50.860;13.664;2023-07-13T10:37:01;3.15;;;2.15;;
25129;SDS011;13308;50.860;13.664;2023-07-13T10:39:27;2.00;;;1.90;;
25129;SDS011;13308;50.860;13.664;2023-07-13T10:41:58;3.20;;;2.65;;
25129;SDS011;13308;50.860;13.664;2023-07-13T10:44:30;4.82;;;2.72;;
25129;SDS011;13308;50.860;13.664;2023-07-13T10:46:58;2.10;;;2.00;;
25129;SDS011;13308;50.860;13.664;2023-07-13T10:49:29;2.50;;;2.00;;
25129;SDS011;13308;50.860;13.664;2023-07-13T10:51:57;25.02;;;20.00;;
25129;SDS011;13308;50.860;13.664;2023-07-13T10:54:32;24.65;;;17.98;;
25129;SDS011;13308;50.860;13.664;2023-07-13T10:57:18;8.65;;;7.85;;
25129;SDS011;13308;50.860;13.664;2023-07-13T11:02:29;6.40;;;5.80;;
25129;SDS011;13308;50.860;13.664;2023-07-13T11:04:55;2.40;;;1.73;;
25129;SDS011;13308;50.860;13.664;2023-07-13T11:07:26;2.15;;;1.95;;
25129;SDS011;13308;50.860;13.664;2023-07-13T11:09:58;2.50;;;2.30;;
25129;SDS011;13308;50.860;13.664;2023-07-13T11:12:27;1.58;;;1.48;;
25129;SDS011;13308;50.860;13.664;2023-07-13T11:15:13;2.42;;;1.50;;
25129;SDS011;13308;50.860;13.664;2023-07-13T11:20:32;1.75;;;1.65;;
25129;SDS011;13308;50.860;13.664;2023-07-13T11:25:37;3.53;;;1.80;;
25129;SDS011;13308;50.860;13.664;2023-07-13T11:30:49;3.50;;;1.52;;
25129;SDS011;13308;50.860;13.664;2023-07-13T11:34:09;2.22;;;1.90;;
25129;SDS011;13308;50.860;13.664;2023-07-13T11:36:17;1.70;;;1.60;;
25129;SDS011;13308;50.860;13.664;2023-07-13T11:42:00;2.17;;;1.98;;
25129;SDS011;13308;50.860;13.664;2023-07-13T11:44:29;1.98;;;1.75;;
25129;SDS011;13308;50.860;13.664;2023-07-13T11:46:56;2.38;;;2.08;;
25129;SDS011;13308;50.860;13.664;2023-07-13T11:49:26;2.42;;;1.80;;
25129;SDS011;13308;50.860;13.664;2023-07-13T11:51:52;2.08;;;1.70;;
25129;SDS011;13308;50.860;13.664;2023-07-13T11:56:52;3.38;;;2.22;;
25129;SDS011;13308;50.860;13.664;2023-07-13T11:59:18;3.03;;;2.03;;
25129;SDS011;13308;50.860;13.664;2023-07-13T12:01:46;5.07;;;2.50;;
25129;SDS011;13308;50.860;13.664;2023-07-13T12:04:23;5.32;;;2.00;;
25129;SDS011;13308;50.860;13.664;2023-07-13T12:06:58;1.83;;;1.60;;
25129;SDS011;13308;50.860;13.664;2023-07-13T12:09:29;2.50;;;1.73;;
25129;SDS011;13308;50.860;13.664;2023-07-13T12:11:56;3.13;;;2.30;;
25129;SDS011;13308;50.860;13.664;2023-07-13T12:14:25;2.42;;;2.22;;
25129;SDS011;13308;50.860;13.664;2023-07-13T12:16:51;2.33;;;2.13;;
25129;SDS011;13308;50.860;13.664;2023-07-13T12:19:19;2.40;;;2.20;;
25129;SDS011;13308;50.860;13.664;2023-07-13T12:21:47;5.20;;;2.10;;
25129;SDS011;13308;50.860;13.664;2023-07-13T12:24:17;2.28;;;2.10;;
25129;SDS011;13308;50.860;13.664;2023-07-13T12:26:43;2.50;;;2.30;;
25129;SDS011;13308;50.860;13.664;2023-07-13T12:29:14;2.70;;;2.13;;
25129;SDS011;13308;50.860;13.664;2023-07-13T12:31:43;2.20;;;2.10;;
25129;SDS011;13308;50.860;13.664;2023-07-13T12:34:10;2.70;;;2.03;;
25129;SDS011;13308;50.860;13.664;2023-07-13T12:36:46;6.00;;;1.95;;
25129;SDS011;13308;50.860;13.664;2023-07-13T12:39:20;1.83;;;1.73;;
25129;SDS011;13308;50.860;13.664;2023-07-13T12:41:51;2.42;;;1.75;;
25129;SDS011;13308;50.860;13.664;2023-07-13T12:44:18;2.90;;;1.92;;
25129;SDS011;13308;50.860;13.664;2023-07-13T12:46:55;1.92;;;1.83;;
25129;SDS011;13308;50.860;13.664;2023-07-13T12:49:24;2.28;;;2.05;;
25129;SDS011;13308;50.860;13.664;2023-07-13T12:51:56;1.80;;;1.70;;
25129;SDS011;13308;50.860;13.664;2023-07-13T12:54:24;2.40;;;2.20;;
25129;SDS011;13308;50.860;13.664;2023-07-13T12:56:49;2.33;;;1.75;;
25129;SDS011;13308;50.860;13.664;2023-07-13T12:59:18;2.65;;;1.90;;
25129;SDS011;13308;50.860;13.664;2023-07-13T13:01:48;3.75;;;2.10;;
25129;SDS011;13308;50.860;13.664;2023-07-13T13:04:15;3.53;;;1.83;;
25129;SDS011;13308;50.860;13.664;2023-07-13T13:06:41;2.70;;;1.90;;
25129;SDS011;13308;50.860;13.664;2023-07-13T13:09:15;2.50;;;1.92;;
25129;SDS011;13308;50.860;13.664;2023-07-13T13:11:43;2.75;;;1.98;;
25129;SDS011;13308;50.860;13.664;2023-07-13T13:14:08;3.85;;;1.83;;
25129;SDS011;13308;50.860;13.664;2023-07-13T13:16:35;2.00;;;1.75;;
25129;SDS011;13308;50.860;13.664;2023-07-13T13:19:15;2.30;;;1.83;;
25129;SDS011;13308;50.860;13.664;2023-07-13T13:21:43;3.10;;;1.90;;
25129;SDS011;13308;50.860;13.664;2023-07-13T13:24:11;1.90;;;1.80;;
25129;SDS011;13308;50.860;13.664;2023-07-13T13:26:38;3.75;;;2.20;;
25129;SDS011;13308;50.860;13.664;2023-07-13T13:29:15;5.40;;;2.17;;
25129;SDS011;13308;50.860;13.664;2023-07-13T13:31:42;3.85;;;1.75;;
25129;SDS011;13308;50.860;13.664;2023-07-13T13:34:10;2.33;;;1.92;;
25129;SDS011;13308;50.860;13.664;2023-07-13T13:36:36;1.90;;;1.70;;
25129;SDS011;13308;50.860;13.664;2023-07-13T13:39:02;1.98;;;1.65;;
25129;SDS011;13308;50.860;13.664;2023-07-13T13:41:29;2.60;;;1.73;;
25129;SDS011;13308;50.860;13.664;2023-07-13T13:43:56;4.05;;;1.90;;
25129;SDS011;13308;50.860;13.664;2023-07-13T13:46:22;1.70;;;1.60;;
25129;SDS011;13308;50.860;13.664;2023-07-13T13:48:55;3.10;;;1.90;;
25129;SDS011;13308;50.860;13.664;2023-07-13T13:51:22;1.67;;;1.52;;
25129;SDS011;13308;50.860;13.664;2023-07-13T13:53:49;2.40;;;1.80;;
25129;SDS011;13308;50.860;13.664;2023-07-13T13:56:15;2.17;;;1.60;;
25129;SDS011;13308;50.860;13.664;2023-07-13T13:58:43;2.63;;;1.75;;
25129;SDS011;13308;50.860;13.664;2023-07-13T14:01:12;1.55;;;1.45;;
25129;SDS011;13308;50.860;13.664;2023-07-13T14:03:41;2.15;;;2.05;;
25129;SDS011;13308;50.860;13.664;2023-07-13T14:06:08;1.70;;;1.60;;
25129;SDS011;13308;50.860;13.664;2023-07-13T14:08:37;2.03;;;1.52;;
25129;SDS011;13308;50.860;13.664;2023-07-13T14:11:03;1.90;;;1.70;;
25129;SDS011;13308;50.860;13.664;2023-07-13T14:13:31;3.25;;;2.35;;
25129;SDS011;13308;50.860;13.664;2023-07-13T14:16:01;2.03;;;1.90;;
25129;SDS011;13308;50.860;13.664;2023-07-13T14:18:27;2.72;;;1.55;;
25129;SDS011;13308;50.860;13.664;2023-07-13T14:20:52;2.08;;;1.55;;
25129;SDS011;13308;50.860;13.664;2023-07-13T14:23:18;2.58;;;2.03;;
25129;SDS011;13308;50.860;13.664;2023-07-13T14:25:44;2.38;;;1.70;;
25129;SDS011;13308;50.860;13.664;2023-07-13T14:28:19;5.45;;;1.63;;
25129;SDS011;13308;50.860;13.664;2023-07-13T14:30:47;2.10;;;1.75;;
25129;SDS011;13308;50.860;13.664;2023-07-13T14:33:13;5.18;;;1.85;;
25129;SDS011;13308;50.860;13.664;2023-07-13T14:35:38;3.80;;;1.65;;
25129;SDS011;13308;50.860;13.664;2023-07-13T14:38:04;2.35;;;1.60;;
25129;SDS011;13308;50.860;13.664;2023-07-13T14:40:33;2.53;;;1.75;;
25129;SDS011;13308;50.860;13.664;2023-07-13T14:42:59;2.88;;;1.85;;
25129;SDS011;13308;50.860;13.664;2023-07-13T14:45:25;2.38;;;1.95;;
25129;SDS011;13308;50.860;13.664;2023-07-13T14:47:51;2.55;;;1.60;;
25129;SDS011;13308;50.860;13.664;2023-07-13T14:50:20;3.80;;;1.83;;
25129;SDS011;13308;50.860;13.664;2023-07-13T14:52:57;2.53;;;1.90;;
25129;SDS011;13308;50.860;13.664;2023-07-13T14:55:22;1.70;;;1.60;;
25129;SDS011;13308;50.860;13.664;2023-07-13T14:57:51;2.75;;;1.80;;
25129;SDS011;13308;50.860;13.664;2023-07-13T15:00:20;1.92;;;1.73;;
25129;SDS011;13308;50.860;13.664;2023-07-13T15:02:49;1.90;;;1.80;;
25129;SDS011;13308;50.860;13.664;2023-07-13T15:05:30;2.13;;;1.98;;
25129;SDS011;13308;50.860;13.664;2023-07-13T15:07:57;2.38;;;2.00;;
25129;SDS011;13308;50.860;13.664;2023-07-13T15:10:26;2.03;;;1.75;;
25129;SDS011;13308;50.860;13.664;2023-07-13T15:12:57;4.10;;;2.05;;
25129;SDS011;13308;50.860;13.664;2023-07-13T15:15:37;1.67;;;1.58;;
25129;SDS011;13308;50.860;13.664;2023-07-13T15:18:05;1.80;;;1.70;;
25129;SDS011;13308;50.860;13.664;2023-07-13T15:20:32;1.92;;;1.60;;
25129;SDS011;13308;50.860;13.664;2023-07-13T15:23:00;1.80;;;1.60;;
25129;SDS011;13308;50.860;13.664;2023-07-13T15:25:26;2.35;;;1.83;;
25129;SDS011;13308;50.860;13.664;2023-07-13T15:27:55;1.70;;;1.60;;
25129;SDS011;13308;50.860;13.664;2023-07-13T15:30:21;1.67;;;1.58;;
25129;SDS011;13308;50.860;13.664;2023-07-13T15:32:48;2.47;;;2.00;;
25129;SDS011;13308;50.860;13.664;2023-07-13T15:35:17;1.52;;;1.42;;
25129;SDS011;13308;50.860;13.664;2023-07-13T15:37:44;1.75;;;1.40;;
25129;SDS011;13308;50.860;13.664;2023-07-13T15:40:10;4.03;;;1.40;;
25129;SDS011;13308;50.860;13.664;2023-07-13T15:42:37;1.88;;;1.50;;
25129;SDS011;13308;50.860;13.664;2023-07-13T15:45:04;2.72;;;1.60;;
25129;SDS011;13308;50.860;13.664;2023-07-13T15:47:31;2.03;;;1.77;;
25129;SDS011;13308;50.860;13.664;2023-07-13T15:49:57;1.63;;;1.50;;
25129;SDS011;13308;50.860;13.664;2023-07-13T15:52:23;1.50;;;1.40;;
25129;SDS011;13308;50.860;13.664;2023-07-13T15:54:49;2.30;;;1.20;;
25129;SDS011;13308;50.860;13.664;2023-07-13T15:57:15;1.63;;;1.33;;
25129;SDS011;13308;50.860;13.664;2023-07-13T15:59:42;1.25;;;1.15;;
25129;SDS011;13308;50.860;13.664;2023-07-13T16:02:16;3.55;;;1.30;;
25129;SDS011;13308;50.860;13.664;2023-07-13T16:04:42;1.77;;;1.13;;
25129;SDS011;13308;50.860;13.664;2023-07-13T16:07:09;1.92;;;1.45;;
25129;SDS011;13308;50.860;13.664;2023-07-13T16:09:36;2.88;;;1.48;;
25129;SDS011;13308;50.860;13.664;2023-07-13T16:12:04;2.22;;;1.10;;
25129;SDS011;13308;50.860;13.664;2023-07-13T16:14:35;3.15;;;1.10;;
25129;SDS011;13308;50.860;13.664;2023-07-13T16:17:01;1.25;;;1.00;;
25129;SDS011;13308;50.860;13.664;2023-07-13T16:19:26;2.03;;;1.10;;
25129;SDS011;13308;50.860;13.664;2023-07-13T16:21:53;1.30;;;1.13;;
25129;SDS011;13308;50.860;13.664;2023-07-13T16:24:21;4.20;;;1.15;;
25129;SDS011;13308;50.860;13.664;2023-07-13T16:26:49;1.42;;;1.00;;
25129;SDS011;13308;50.860;13.664;2023-07-13T16:29:17;0.98;;;0.88;;
25129;SDS011;13308;50.860;13.664;2023-07-13T16:32:01;1.05;;;0.80;;
25129;SDS011;13308;50.860;13.664;2023-07-13T16:34:33;1.13;;;0.88;;
25129;SDS011;13308;50.860;13.664;2023-07-13T16:37:03;1.30;;;0.80;;
25129;SDS011;13308;50.860;13.664;2023-07-13T16:39:52;2.78;;;0.68;;
25129;SDS011;13308;50.860;13.664;2023-07-13T16:42:23;1.05;;;0.95;;
25129;SDS011;13308;50.860;13.664;2023-07-13T16:44:50;7.45;;;0.85;;
25129;SDS011;13308;50.860;13.664;2023-07-13T16:47:16;2.97;;;1.00;;
25129;SDS011;13308;50.860;13.664;2023-07-13T16:49:42;2.90;;;0.77;;
25129;SDS011;13308;50.860;13.664;2023-07-13T16:52:13;1.17;;;0.70;;
25129;SDS011;13308;50.860;13.664;2023-07-13T16:54:44;1.80;;;0.80;;
25129;SDS011;13308;50.860;13.664;2023-07-13T16:57:21;1.08;;;1.00;;
25129;SDS011;13308;50.860;13.664;2023-07-13T16:59:53;0.75;;;0.70;;
25129;SDS011;13308;50.860;13.664;2023-07-13T17:04:56;1.60;;;1.00;;
25129;SDS011;13308;50.860;13.664;2023-07-13T17:07:21;0.63;;;0.60;;
25129;SDS011;13308;50.860;13.664;2023-07-13T17:09:47;1.42;;;0.70;;
25129;SDS011;13308;50.860;13.664;2023-07-13T17:12:12;0.85;;;0.70;;
25129;SDS011;13308;50.860;13.664;2023-07-13T17:14:38;1.83;;;0.80;;
25129;SDS011;13308;50.860;13.664;2023-07-13T17:17:05;0.85;;;0.80;;
25129;SDS011;13308;50.860;13.664;2023-07-13T17:19:39;0.80;;;0.80;;
25129;SDS011;13308;50.860;13.664;2023-07-13T17:22:07;1.08;;;0.98;;
25129;SDS011;13308;50.860;13.664;2023-07-13T17:24:43;1.73;;;0.90;;
25129;SDS011;13308;50.860;13.664;2023-07-13T17:27:10;1.50;;;0.90;;
25129;SDS011;13308;50.860;13.664;2023-07-13T17:29:36;2.47;;;1.08;;
25129;SDS011;13308;50.860;13.664;2023-07-13T17:32:05;1.73;;;1.10;;
25129;SDS011;13308;50.860;13.664;2023-07-13T17:34:31;1.70;;;1.13;;
25129;SDS011;13308;50.860;13.664;2023-07-13T17:36:57;2.30;;;1.30;;
25129;SDS011;13308;50.860;13.664;2023-07-13T17:39:24;4.30;;;1.60;;
25129;SDS011;13308;50.860;13.664;2023-07-13T17:41:51;2.08;;;1.02;;
25129;SDS011;13308;50.860;13.664;2023-07-13T17:44:17;1.48;;;1.30;;
25129;SDS011;13308;50.860;13.664;2023-07-13T17:46:44;1.30;;;1.10;;
25129;SDS011;13308;50.860;13.664;2023-07-13T17:49:18;2.10;;;1.10;;
25129;SDS011;13308;50.860;13.664;2023-07-13T17:51:48;1.42;;;1.33;;
25129;SDS011;13308;50.860;13.664;2023-07-13T17:54:15;1.95;;;1.40;;
25129;SDS011;13308;50.860;13.664;2023-07-13T17:56:41;1.42;;;1.13;;
25129;SDS011;13308;50.860;13.664;2023-07-13T17:59:07;1.77;;;1.10;;
25129;SDS011;13308;50.860;13.664;2023-07-13T18:01:32;1.25;;;1.10;;
25129;SDS011;13308;50.860;13.664;2023-07-13T18:03:58;2.95;;;1.20;;
25129;SDS011;13308;50.860;13.664;2023-07-13T18:08:53;1.02;;;0.93;;
25129;SDS011;13308;50.860;13.664;2023-07-13T18:11:20;1.30;;;1.20;;
25129;SDS011;13308;50.860;13.664;2023-07-13T18:13:46;1.52;;;1.05;;
25129;SDS011;13308;50.860;13.664;2023-07-13T18:16:15;3.10;;;0.80;;
25129;SDS011;13308;50.860;13.664;2023-07-13T18:18:43;1.55;;;1.25;;
25129;SDS011;13308;50.860;13.664;2023-07-13T18:21:09;1.20;;;1.10;;
